Grand Terrace, CA (92313)

9:42 PM PDT on August 04, 2015 (GMT -0700)
MesoWest | | Change Station
CLOSE
Current Station
Personal Weather Station
Location: San Bernardino, CA
Elevation: 1049 ft
Nearby Weather Stations

Elev 1049 ft 34.11 °N, 117.30 °W | Updated 53 minutes ago

Clear
Clear
84 °F
Feels Like 82 °F
N
1
Wind Variable Wind from WSW
Gusts 12.0 mph

Today
High -- | Low -- °F
--% Chance of Precip.
Yesterday
High -- | Low -- °F
Precip. -- in
6:02 AM 7:47 PM
Waning Gibbous, 71% visible
Pressure 29.92 in
Visibility 7.0 miles
Clouds Clear
Heat Index 82 °F
Dew Point 52 °F
Humidity 33%
Rainfall in
Snow Depth Not available.
UV 0 out of 12
Pollen 4.00 out of 12
Air Quality Not available.
Flu Activity Not available.
METAR KSBD 050347Z 22004KT 7SM SKC 28/09 A2992 RMK LAST

More Conditions Fewer Conditions

Pressure 29.92 in
Visibility 7.0 miles
Clouds Clear
Heat Index 82 °F
Dew Point 52 °F
Humidity 33%
Rainfall in
Snow Depth Not available.
UV 0 out of 12
Pollen 4.00 out of 12
Air Quality Not available.
Flu Activity Not available.
METAR KSBD 050347Z 22004KT 7SM SKC 28/09 A2992 RMK LAST

More Conditions Fewer Conditions

10-Day Weather Forecast

×

Almanac

Astronomy

Aug. 04, 2015 Rise Set
Actual Time
Civil Twilight
Nautical Twilight
Astronomical Twilight
Moon
Length of Visible Light
Length of Day
Tomorrow will be .
, % of the Moon is Illuminated

Today's Extremes

State Highs State Lows

Community

WunderPhotos

Upload Photos

1,844,094 photos uploaded!

WunderBlogs® & News

Nearby

Air Quality

  Air Quality AQ Index Pollutant
Not available.

Snow Depth

Station Depth Elevation

Earthquake Activity

City Distance Mag. Time & Date
Minimum magnitude displayed is 2.5.

Coastal Water Temperatures

Place Temperature

Stations

Nearby Weather Stations

Station Location Temp. Windchill Dew Point Humidity Wind Precip. Elev Updated Type